SARC/CNQ METAR and TAF weather

Enter ICAO airport designator
Station Type Date Time Source
SARC METAR 2019/04/24 16:00 UTC NOAA

SARC 241600Z 07013KT 9999 FEW020 BKN200 30/23 Q1015


Station Type Date Time Source
SARC Decoded METAR 2019/04/24 16:00 UTC NOAA

Corrientes Aero., Argentina (SARC) 27-27S 058-46W 62M
Apr 24, 2019 - 12:00 PM EDT / 2019.04.24 1600 UTC
Wind: from the ENE (070 degrees) at 15 MPH (13 KT):0
Visibility: greater than 7 mile(s):0
Sky conditions: mostly cloudy
Temperature: 86 F (30 C)
Heat index: 93.4 F (34.1 C):1
Dew Point: 73 F (23 C)
Relative Humidity: 66%
Pressure (altimeter): 29.97 in. Hg (1015 hPa)
ob: SARC 241600Z 07013KT 9999 FEW020 BKN200 30/23 Q1015
cycle: 16

Station Type Date Time Source
SARC TAF 2019/03/09 18:39 UTC NOAA

TAF TAF COR SARC 091700Z 0918/1018 16010KT 4000 +DZ OVC015 TX26/1018Z TN17/1009Z 0919/0921 9999 BKN015 BKN020
BECMG 0923/1001 09005KT CAVOK
TEMPO 1005/1011 9999 SCT025 BKN100

Example: see airport list